sensor_id;sensor_type;location;lat;lon;timestamp;P1;durP1;ratioP1;P2;durP2;ratioP2
11711;SDS011;5912;51.034;6.984;2023-06-26T00:01:01;5.35;;;4.85;;
11711;SDS011;5912;51.034;6.984;2023-06-26T00:03:26;7.25;;;5.63;;
11711;SDS011;5912;51.034;6.984;2023-06-26T00:05:53;6.00;;;5.32;;
11711;SDS011;5912;51.034;6.984;2023-06-26T00:08:19;6.57;;;5.90;;
11711;SDS011;5912;51.034;6.984;2023-06-26T00:10:44;6.70;;;5.68;;
11711;SDS011;5912;51.034;6.984;2023-06-26T00:13:11;5.78;;;5.18;;
11711;SDS011;5912;51.034;6.984;2023-06-26T00:15:37;6.15;;;5.32;;
11711;SDS011;5912;51.034;6.984;2023-06-26T00:18:02;7.43;;;5.18;;
11711;SDS011;5912;51.034;6.984;2023-06-26T00:20:28;5.72;;;5.20;;
11711;SDS011;5912;51.034;6.984;2023-06-26T00:22:53;6.00;;;5.40;;
11711;SDS011;5912;51.034;6.984;2023-06-26T00:25:20;7.45;;;5.85;;
11711;SDS011;5912;51.034;6.984;2023-06-26T00:27:46;6.32;;;5.43;;
11711;SDS011;5912;51.034;6.984;2023-06-26T00:30:11;5.82;;;5.22;;
11711;SDS011;5912;51.034;6.984;2023-06-26T00:32:37;6.50;;;5.60;;
11711;SDS011;5912;51.034;6.984;2023-06-26T00:35:02;6.18;;;5.28;;
11711;SDS011;5912;51.034;6.984;2023-06-26T00:37:27;6.70;;;5.72;;
11711;SDS011;5912;51.034;6.984;2023-06-26T00:39:53;5.80;;;5.07;;
11711;SDS011;5912;51.034;6.984;2023-06-26T00:42:18;5.93;;;5.28;;
11711;SDS011;5912;51.034;6.984;2023-06-26T00:44:43;5.72;;;5.18;;
11711;SDS011;5912;51.034;6.984;2023-06-26T00:47:09;7.20;;;5.47;;
11711;SDS011;5912;51.034;6.984;2023-06-26T00:49:39;6.80;;;5.85;;
11711;SDS011;5912;51.034;6.984;2023-06-26T00:52:04;7.32;;;5.22;;
11711;SDS011;5912;51.034;6.984;2023-06-26T00:54:31;6.03;;;5.30;;
11711;SDS011;5912;51.034;6.984;2023-06-26T00:56:56;6.15;;;5.55;;
11711;SDS011;5912;51.034;6.984;2023-06-26T00:59:21;6.15;;;5.50;;
11711;SDS011;5912;51.034;6.984;2023-06-26T01:01:47;7.45;;;6.07;;
11711;SDS011;5912;51.034;6.984;2023-06-26T01:04:13;6.35;;;5.68;;
11711;SDS011;5912;51.034;6.984;2023-06-26T01:06:43;6.75;;;5.65;;
11711;SDS011;5912;51.034;6.984;2023-06-26T01:09:13;5.85;;;5.25;;
11711;SDS011;5912;51.034;6.984;2023-06-26T01:11:43;5.57;;;5.03;;
11711;SDS011;5912;51.034;6.984;2023-06-26T01:14:08;5.97;;;5.20;;
11711;SDS011;5912;51.034;6.984;2023-06-26T01:16:34;6.05;;;5.35;;
11711;SDS011;5912;51.034;6.984;2023-06-26T01:19:00;4.85;;;4.35;;
11711;SDS011;5912;51.034;6.984;2023-06-26T01:21:26;7.35;;;5.15;;
11711;SDS011;5912;51.034;6.984;2023-06-26T01:26:23;6.22;;;5.40;;
11711;SDS011;5912;51.034;6.984;2023-06-26T01:28:52;6.20;;;5.38;;
11711;SDS011;5912;51.034;6.984;2023-06-26T01:31:19;5.88;;;5.28;;
11711;SDS011;5912;51.034;6.984;2023-06-26T01:33:44;5.00;;;4.47;;
11711;SDS011;5912;51.034;6.984;2023-06-26T01:36:11;6.20;;;4.90;;
11711;SDS011;5912;51.034;6.984;2023-06-26T01:38:37;6.20;;;5.30;;
11711;SDS011;5912;51.034;6.984;2023-06-26T01:41:02;5.88;;;5.28;;
11711;SDS011;5912;51.034;6.984;2023-06-26T01:46:04;5.00;;;4.60;;
11711;SDS011;5912;51.034;6.984;2023-06-26T01:48:40;5.60;;;4.95;;
11711;SDS011;5912;51.034;6.984;2023-06-26T01:51:14;6.65;;;5.50;;
11711;SDS011;5912;51.034;6.984;2023-06-26T01:53:44;6.13;;;5.47;;
11711;SDS011;5912;51.034;6.984;2023-06-26T01:56:15;5.53;;;5.03;;
11711;SDS011;5912;51.034;6.984;2023-06-26T01:58:45;6.70;;;5.00;;
11711;SDS011;5912;51.034;6.984;2023-06-26T02:01:12;5.63;;;5.03;;
11711;SDS011;5912;51.034;6.984;2023-06-26T02:03:37;6.05;;;5.28;;
11711;SDS011;5912;51.034;6.984;2023-06-26T02:06:02;5.88;;;5.15;;
11711;SDS011;5912;51.034;6.984;2023-06-26T02:08:28;6.70;;;5.28;;
11711;SDS011;5912;51.034;6.984;2023-06-26T02:10:53;5.20;;;4.68;;
11711;SDS011;5912;51.034;6.984;2023-06-26T02:13:18;5.28;;;4.78;;
11711;SDS011;5912;51.034;6.984;2023-06-26T02:15:44;5.28;;;4.78;;
11711;SDS011;5912;51.034;6.984;2023-06-26T02:18:09;6.22;;;5.63;;
11711;SDS011;5912;51.034;6.984;2023-06-26T02:20:35;5.93;;;5.38;;
11711;SDS011;5912;51.034;6.984;2023-06-26T02:23:00;5.65;;;5.05;;
11711;SDS011;5912;51.034;6.984;2023-06-26T02:25:26;6.10;;;5.50;;
11711;SDS011;5912;51.034;6.984;2023-06-26T02:27:51;6.13;;;5.53;;
11711;SDS011;5912;51.034;6.984;2023-06-26T02:30:16;7.13;;;5.43;;
11711;SDS011;5912;51.034;6.984;2023-06-26T02:32:42;5.25;;;4.68;;
11711;SDS011;5912;51.034;6.984;2023-06-26T02:35:07;5.32;;;4.82;;
11711;SDS011;5912;51.034;6.984;2023-06-26T02:37:33;7.20;;;5.53;;
11711;SDS011;5912;51.034;6.984;2023-06-26T02:39:58;6.55;;;5.18;;
11711;SDS011;5912;51.034;6.984;2023-06-26T02:42:24;6.32;;;5.45;;
11711;SDS011;5912;51.034;6.984;2023-06-26T02:44:49;6.75;;;5.57;;
11711;SDS011;5912;51.034;6.984;2023-06-26T02:47:14;6.47;;;5.43;;
11711;SDS011;5912;51.034;6.984;2023-06-26T02:49:40;6.05;;;5.45;;
11711;SDS011;5912;51.034;6.984;2023-06-26T02:52:05;6.82;;;5.70;;
11711;SDS011;5912;51.034;6.984;2023-06-26T02:54:31;9.65;;;5.15;;
11711;SDS011;5912;51.034;6.984;2023-06-26T02:56:56;6.20;;;5.30;;
11711;SDS011;5912;51.034;6.984;2023-06-26T02:59:21;6.72;;;5.75;;
11711;SDS011;5912;51.034;6.984;2023-06-26T03:01:46;6.63;;;5.47;;
11711;SDS011;5912;51.034;6.984;2023-06-26T03:04:12;7.20;;;5.55;;
11711;SDS011;5912;51.034;6.984;2023-06-26T03:06:37;6.75;;;5.68;;
11711;SDS011;5912;51.034;6.984;2023-06-26T03:09:02;6.13;;;5.53;;
11711;SDS011;5912;51.034;6.984;2023-06-26T03:11:28;6.18;;;5.50;;
11711;SDS011;5912;51.034;6.984;2023-06-26T03:13:53;7.55;;;5.65;;
11711;SDS011;5912;51.034;6.984;2023-06-26T03:16:18;6.75;;;5.70;;
11711;SDS011;5912;51.034;6.984;2023-06-26T03:18:44;6.65;;;4.93;;
11711;SDS011;5912;51.034;6.984;2023-06-26T03:21:09;7.85;;;5.45;;
11711;SDS011;5912;51.034;6.984;2023-06-26T03:23:35;5.22;;;4.72;;
11711;SDS011;5912;51.034;6.984;2023-06-26T03:26:00;6.28;;;5.63;;
11711;SDS011;5912;51.034;6.984;2023-06-26T03:28:25;5.63;;;5.13;;
11711;SDS011;5912;51.034;6.984;2023-06-26T03:30:51;7.82;;;5.82;;
11711;SDS011;5912;51.034;6.984;2023-06-26T03:33:16;5.72;;;5.13;;
11711;SDS011;5912;51.034;6.984;2023-06-26T03:35:41;7.53;;;5.68;;
11711;SDS011;5912;51.034;6.984;2023-06-26T03:38:07;5.80;;;5.20;;
11711;SDS011;5912;51.034;6.984;2023-06-26T03:40:32;7.32;;;5.05;;
11711;SDS011;5912;51.034;6.984;2023-06-26T03:42:57;5.78;;;4.82;;
11711;SDS011;5912;51.034;6.984;2023-06-26T03:45:23;5.60;;;4.63;;
11711;SDS011;5912;51.034;6.984;2023-06-26T03:47:48;6.38;;;4.45;;
11711;SDS011;5912;51.034;6.984;2023-06-26T03:50:15;6.18;;;4.78;;
11711;SDS011;5912;51.034;6.984;2023-06-26T03:52:41;5.63;;;4.60;;
11711;SDS011;5912;51.034;6.984;2023-06-26T03:55:06;5.35;;;4.32;;
11711;SDS011;5912;51.034;6.984;2023-06-26T03:57:32;5.00;;;3.97;;
11711;SDS011;5912;51.034;6.984;2023-06-26T03:59:57;5.68;;;4.32;;
11711;SDS011;5912;51.034;6.984;2023-06-26T04:02:22;5.50;;;4.30;;
11711;SDS011;5912;51.034;6.984;2023-06-26T04:04:48;5.40;;;4.45;;
11711;SDS011;5912;51.034;6.984;2023-06-26T04:07:13;5.07;;;4.35;;
11711;SDS011;5912;51.034;6.984;2023-06-26T04:09:38;5.30;;;4.40;;
11711;SDS011;5912;51.034;6.984;2023-06-26T04:12:03;6.10;;;3.95;;
11711;SDS011;5912;51.034;6.984;2023-06-26T04:14:29;4.38;;;3.85;;
11711;SDS011;5912;51.034;6.984;2023-06-26T04:16:54;4.70;;;4.20;;
11711;SDS011;5912;51.034;6.984;2023-06-26T04:19:20;5.22;;;4.28;;
11711;SDS011;5912;51.034;6.984;2023-06-26T04:21:45;5.28;;;4.03;;
11711;SDS011;5912;51.034;6.984;2023-06-26T04:24:10;5.35;;;4.10;;
11711;SDS011;5912;51.034;6.984;2023-06-26T04:26:36;5.75;;;4.70;;
11711;SDS011;5912;51.034;6.984;2023-06-26T04:29:02;7.35;;;4.20;;
11711;SDS011;5912;51.034;6.984;2023-06-26T04:31:28;4.32;;;3.83;;
11711;SDS011;5912;51.034;6.984;2023-06-26T04:33:56;6.43;;;4.20;;
11711;SDS011;5912;51.034;6.984;2023-06-26T04:36:22;6.90;;;4.25;;
11711;SDS011;5912;51.034;6.984;2023-06-26T04:38:48;5.97;;;3.78;;
11711;SDS011;5912;51.034;6.984;2023-06-26T04:41:14;6.43;;;4.18;;
11711;SDS011;5912;51.034;6.984;2023-06-26T04:43:40;4.97;;;4.32;;
11711;SDS011;5912;51.034;6.984;2023-06-26T04:46:05;4.38;;;3.92;;
11711;SDS011;5912;51.034;6.984;2023-06-26T04:48:31;4.53;;;4.13;;
11711;SDS011;5912;51.034;6.984;2023-06-26T04:50:57;6.28;;;4.20;;
11711;SDS011;5912;51.034;6.984;2023-06-26T04:53:23;4.70;;;4.10;;
11711;SDS011;5912;51.034;6.984;2023-06-26T04:55:50;5.07;;;4.30;;
11711;SDS011;5912;51.034;6.984;2023-06-26T04:58:18;6.75;;;4.47;;
11711;SDS011;5912;51.034;6.984;2023-06-26T05:00:44;5.00;;;4.15;;
11711;SDS011;5912;51.034;6.984;2023-06-26T05:03:11;5.88;;;4.28;;
11711;SDS011;5912;51.034;6.984;2023-06-26T05:05:37;4.43;;;3.58;;
11711;SDS011;5912;51.034;6.984;2023-06-26T05:08:16;6.82;;;4.20;;
11711;SDS011;5912;51.034;6.984;2023-06-26T05:10:42;5.35;;;3.58;;
11711;SDS011;5912;51.034;6.984;2023-06-26T05:13:08;6.22;;;4.18;;
11711;SDS011;5912;51.034;6.984;2023-06-26T05:15:34;4.72;;;3.67;;
11711;SDS011;5912;51.034;6.984;2023-06-26T05:17:59;5.32;;;3.70;;
11711;SDS011;5912;51.034;6.984;2023-06-26T05:20:24;4.70;;;3.78;;
11711;SDS011;5912;51.034;6.984;2023-06-26T05:22:49;3.72;;;3.30;;
11711;SDS011;5912;51.034;6.984;2023-06-26T05:25:15;4.40;;;3.38;;
11711;SDS011;5912;51.034;6.984;2023-06-26T05:27:41;5.68;;;3.88;;
11711;SDS011;5912;51.034;6.984;2023-06-26T05:30:07;5.47;;;3.72;;
11711;SDS011;5912;51.034;6.984;2023-06-26T05:32:34;4.75;;;3.50;;
11711;SDS011;5912;51.034;6.984;2023-06-26T05:35:00;5.55;;;3.63;;
11711;SDS011;5912;51.034;6.984;2023-06-26T05:37:28;4.22;;;3.75;;
11711;SDS011;5912;51.034;6.984;2023-06-26T05:39:55;4.90;;;3.63;;
11711;SDS011;5912;51.034;6.984;2023-06-26T05:42:21;5.30;;;3.75;;
11711;SDS011;5912;51.034;6.984;2023-06-26T05:44:46;4.32;;;3.28;;
11711;SDS011;5912;51.034;6.984;2023-06-26T05:47:11;3.80;;;3.35;;
11711;SDS011;5912;51.034;6.984;2023-06-26T05:49:37;5.57;;;3.63;;
11711;SDS011;5912;51.034;6.984;2023-06-26T05:52:02;4.18;;;3.42;;
11711;SDS011;5912;51.034;6.984;2023-06-26T05:54:28;4.30;;;3.17;;
11711;SDS011;5912;51.034;6.984;2023-06-26T05:56:55;4.05;;;3.10;;
11711;SDS011;5912;51.034;6.984;2023-06-26T05:59:22;5.45;;;3.75;;
11711;SDS011;5912;51.034;6.984;2023-06-26T06:01:48;5.28;;;3.88;;
11711;SDS011;5912;51.034;6.984;2023-06-26T06:04:13;4.57;;;3.65;;
11711;SDS011;5912;51.034;6.984;2023-06-26T06:06:38;5.10;;;3.45;;
11711;SDS011;5912;51.034;6.984;2023-06-26T06:09:04;5.47;;;3.90;;
11711;SDS011;5912;51.034;6.984;2023-06-26T06:11:29;6.15;;;3.10;;
11711;SDS011;5912;51.034;6.984;2023-06-26T06:13:54;4.65;;;3.20;;
11711;SDS011;5912;51.034;6.984;2023-06-26T06:16:19;5.93;;;3.38;;
11711;SDS011;5912;51.034;6.984;2023-06-26T06:18:45;4.78;;;3.30;;
11711;SDS011;5912;51.034;6.984;2023-06-26T06:21:10;7.30;;;3.40;;
11711;SDS011;5912;51.034;6.984;2023-06-26T06:23:35;4.57;;;3.10;;
11711;SDS011;5912;51.034;6.984;2023-06-26T06:26:01;9.43;;;3.53;;
11711;SDS011;5912;51.034;6.984;2023-06-26T06:28:26;6.45;;;3.83;;
11711;SDS011;5912;51.034;6.984;2023-06-26T06:30:51;4.80;;;3.30;;
11711;SDS011;5912;51.034;6.984;2023-06-26T06:33:17;5.95;;;3.47;;
11711;SDS011;5912;51.034;6.984;2023-06-26T06:35:42;6.35;;;2.97;;
11711;SDS011;5912;51.034;6.984;2023-06-26T06:38:07;4.35;;;2.67;;
11711;SDS011;5912;51.034;6.984;2023-06-26T06:40:32;4.68;;;2.97;;
11711;SDS011;5912;51.034;6.984;2023-06-26T06:42:58;6.25;;;3.40;;
11711;SDS011;5912;51.034;6.984;2023-06-26T06:45:23;7.15;;;3.00;;
11711;SDS011;5912;51.034;6.984;2023-06-26T06:47:48;3.75;;;2.95;;
11711;SDS011;5912;51.034;6.984;2023-06-26T06:50:14;6.72;;;3.75;;
11711;SDS011;5912;51.034;6.984;2023-06-26T06:52:40;3.75;;;2.80;;
11711;SDS011;5912;51.034;6.984;2023-06-26T06:55:07;5.03;;;3.30;;
11711;SDS011;5912;51.034;6.984;2023-06-26T06:57:36;7.47;;;3.78;;
11711;SDS011;5912;51.034;6.984;2023-06-26T07:00:03;4.55;;;3.25;;
11711;SDS011;5912;51.034;6.984;2023-06-26T07:02:30;4.55;;;3.28;;
11711;SDS011;5912;51.034;6.984;2023-06-26T07:04:55;4.97;;;3.17;;
11711;SDS011;5912;51.034;6.984;2023-06-26T07:07:20;6.57;;;3.30;;
11711;SDS011;5912;51.034;6.984;2023-06-26T07:09:46;5.50;;;3.33;;
11711;SDS011;5912;51.034;6.984;2023-06-26T07:12:11;3.85;;;3.08;;
11711;SDS011;5912;51.034;6.984;2023-06-26T07:14:36;4.95;;;3.00;;
11711;SDS011;5912;51.034;6.984;2023-06-26T07:17:02;6.43;;;2.83;;
11711;SDS011;5912;51.034;6.984;2023-06-26T07:19:27;4.47;;;2.75;;
11711;SDS011;5912;51.034;6.984;2023-06-26T07:21:52;4.80;;;2.65;;
11711;SDS011;5912;51.034;6.984;2023-06-26T07:24:18;4.50;;;3.08;;
11711;SDS011;5912;51.034;6.984;2023-06-26T07:26:43;4.40;;;2.78;;
11711;SDS011;5912;51.034;6.984;2023-06-26T07:29:09;5.60;;;3.17;;
11711;SDS011;5912;51.034;6.984;2023-06-26T07:31:34;5.15;;;3.10;;
11711;SDS011;5912;51.034;6.984;2023-06-26T07:33:59;5.05;;;3.10;;
11711;SDS011;5912;51.034;6.984;2023-06-26T07:36:25;5.50;;;3.58;;
11711;SDS011;5912;51.034;6.984;2023-06-26T07:38:50;6.07;;;3.38;;
11711;SDS011;5912;51.034;6.984;2023-06-26T07:41:15;5.82;;;3.13;;
11711;SDS011;5912;51.034;6.984;2023-06-26T07:43:41;4.35;;;3.22;;
11711;SDS011;5912;51.034;6.984;2023-06-26T07:46:06;7.88;;;3.17;;
11711;SDS011;5912;51.034;6.984;2023-06-26T07:48:31;4.20;;;2.88;;
11711;SDS011;5912;51.034;6.984;2023-06-26T07:50:56;4.90;;;3.05;;
11711;SDS011;5912;51.034;6.984;2023-06-26T07:53:22;4.45;;;3.05;;
11711;SDS011;5912;51.034;6.984;2023-06-26T07:55:47;8.20;;;3.10;;
11711;SDS011;5912;51.034;6.984;2023-06-26T07:58:12;4.97;;;3.13;;
11711;SDS011;5912;51.034;6.984;2023-06-26T08:00:38;5.18;;;3.30;;
11711;SDS011;5912;51.034;6.984;2023-06-26T08:03:03;4.10;;;2.90;;
11711;SDS011;5912;51.034;6.984;2023-06-26T08:05:29;4.40;;;2.60;;
11711;SDS011;5912;51.034;6.984;2023-06-26T08:07:54;5.03;;;2.28;;
11711;SDS011;5912;51.034;6.984;2023-06-26T08:10:20;8.57;;;2.60;;
11711;SDS011;5912;51.034;6.984;2023-06-26T08:12:45;4.47;;;2.60;;
11711;SDS011;5912;51.034;6.984;2023-06-26T08:15:11;4.57;;;2.88;;
11711;SDS011;5912;51.034;6.984;2023-06-26T08:17:37;4.53;;;2.38;;
11711;SDS011;5912;51.034;6.984;2023-06-26T08:20:03;4.88;;;3.00;;
11711;SDS011;5912;51.034;6.984;2023-06-26T08:22:29;4.95;;;2.63;;
11711;SDS011;5912;51.034;6.984;2023-06-26T08:24:55;3.30;;;2.20;;
11711;SDS011;5912;51.034;6.984;2023-06-26T08:27:20;4.63;;;2.22;;
11711;SDS011;5912;51.034;6.984;2023-06-26T08:29:45;3.25;;;2.30;;
11711;SDS011;5912;51.034;6.984;2023-06-26T08:32:11;4.03;;;2.53;;
11711;SDS011;5912;51.034;6.984;2023-06-26T08:34:36;6.43;;;2.88;;
11711;SDS011;5912;51.034;6.984;2023-06-26T08:37:01;3.72;;;2.70;;
11711;SDS011;5912;51.034;6.984;2023-06-26T08:39:27;4.70;;;2.70;;
11711;SDS011;5912;51.034;6.984;2023-06-26T08:41:53;5.25;;;2.97;;
11711;SDS011;5912;51.034;6.984;2023-06-26T08:44:18;6.13;;;2.90;;
11711;SDS011;5912;51.034;6.984;2023-06-26T08:46:47;5.25;;;3.03;;
11711;SDS011;5912;51.034;6.984;2023-06-26T08:49:20;3.55;;;2.53;;
11711;SDS011;5912;51.034;6.984;2023-06-26T08:51:56;7.25;;;2.97;;
11711;SDS011;5912;51.034;6.984;2023-06-26T08:54:27;7.57;;;3.03;;
11711;SDS011;5912;51.034;6.984;2023-06-26T08:56:58;7.55;;;2.58;;
11711;SDS011;5912;51.034;6.984;2023-06-26T08:59:24;6.13;;;2.22;;
11711;SDS011;5912;51.034;6.984;2023-06-26T09:01:50;5.57;;;2.83;;
11711;SDS011;5912;51.034;6.984;2023-06-26T09:04:15;4.65;;;2.50;;
11711;SDS011;5912;51.034;6.984;2023-06-26T09:06:41;6.18;;;2.50;;
11711;SDS011;5912;51.034;6.984;2023-06-26T09:09:06;5.97;;;3.25;;
11711;SDS011;5912;51.034;6.984;2023-06-26T09:11:32;5.13;;;2.85;;
11711;SDS011;5912;51.034;6.984;2023-06-26T09:13:58;3.95;;;2.70;;
11711;SDS011;5912;51.034;6.984;2023-06-26T09:16:25;7.13;;;2.55;;
11711;SDS011;5912;51.034;6.984;2023-06-26T09:18:51;4.57;;;2.40;;
11711;SDS011;5912;51.034;6.984;2023-06-26T09:21:17;6.35;;;2.67;;
11711;SDS011;5912;51.034;6.984;2023-06-26T09:23:42;4.25;;;2.47;;
11711;SDS011;5912;51.034;6.984;2023-06-26T09:26:08;6.82;;;2.72;;
11711;SDS011;5912;51.034;6.984;2023-06-26T09:28:34;7.13;;;3.42;;
11711;SDS011;5912;51.034;6.984;2023-06-26T09:31:01;5.25;;;2.65;;
11711;SDS011;5912;51.034;6.984;2023-06-26T09:33:32;4.68;;;2.55;;
11711;SDS011;5912;51.034;6.984;2023-06-26T09:36:00;4.63;;;2.58;;
11711;SDS011;5912;51.034;6.984;2023-06-26T09:38:26;7.93;;;2.50;;
11711;SDS011;5912;51.034;6.984;2023-06-26T09:40:51;5.07;;;2.45;;
11711;SDS011;5912;51.034;6.984;2023-06-26T09:43:17;5.35;;;2.70;;
11711;SDS011;5912;51.034;6.984;2023-06-26T09:45:44;3.75;;;2.50;;
11711;SDS011;5912;51.034;6.984;2023-06-26T09:48:09;5.82;;;2.35;;
11711;SDS011;5912;51.034;6.984;2023-06-26T09:50:36;3.42;;;2.40;;
11711;SDS011;5912;51.034;6.984;2023-06-26T09:53:09;4.47;;;2.30;;
11711;SDS011;5912;51.034;6.984;2023-06-26T09:55:36;5.47;;;2.40;;
11711;SDS011;5912;51.034;6.984;2023-06-26T09:58:02;5.88;;;2.30;;
11711;SDS011;5912;51.034;6.984;2023-06-26T10:00:28;5.50;;;2.00;;
11711;SDS011;5912;51.034;6.984;2023-06-26T10:02:55;3.58;;;1.90;;
11711;SDS011;5912;51.034;6.984;2023-06-26T10:05:20;7.03;;;2.20;;
11711;SDS011;5912;51.034;6.984;2023-06-26T10:07:45;4.13;;;2.03;;
11711;SDS011;5912;51.034;6.984;2023-06-26T10:10:11;3.67;;;1.92;;
11711;SDS011;5912;51.034;6.984;2023-06-26T10:12:37;5.00;;;2.05;;
11711;SDS011;5912;51.034;6.984;2023-06-26T10:15:03;6.07;;;1.98;;
11711;SDS011;5912;51.034;6.984;2023-06-26T10:17:30;4.55;;;2.35;;
11711;SDS011;5912;51.034;6.984;2023-06-26T10:19:59;4.65;;;2.08;;
11711;SDS011;5912;51.034;6.984;2023-06-26T10:22:29;5.88;;;2.10;;
11711;SDS011;5912;51.034;6.984;2023-06-26T10:24:58;4.05;;;1.50;;
11711;SDS011;5912;51.034;6.984;2023-06-26T10:27:26;8.27;;;2.22;;
11711;SDS011;5912;51.034;6.984;2023-06-26T10:29:59;5.68;;;2.10;;
11711;SDS011;5912;51.034;6.984;2023-06-26T10:32:27;2.72;;;1.83;;
11711;SDS011;5912;51.034;6.984;2023-06-26T10:34:54;4.55;;;1.90;;
11711;SDS011;5912;51.034;6.984;2023-06-26T10:37:20;4.82;;;2.08;;
11711;SDS011;5912;51.034;6.984;2023-06-26T10:39:47;3.30;;;1.80;;
11711;SDS011;5912;51.034;6.984;2023-06-26T10:42:14;5.90;;;1.90;;
11711;SDS011;5912;51.034;6.984;2023-06-26T10:44:41;4.00;;;1.45;;
11711;SDS011;5912;51.034;6.984;2023-06-26T11:03:38;4.07;;;1.70;;
11711;SDS011;5912;51.034;6.984;2023-06-26T11:06:14;3.20;;;1.75;;
11711;SDS011;5912;51.034;6.984;2023-06-26T11:08:48;3.95;;;1.48;;
11711;SDS011;5912;51.034;6.984;2023-06-26T11:11:16;2.78;;;1.60;;
11711;SDS011;5912;51.034;6.984;2023-06-26T11:13:42;2.38;;;1.60;;
11711;SDS011;5912;51.034;6.984;2023-06-26T11:16:11;3.15;;;1.48;;
11711;SDS011;5912;51.034;6.984;2023-06-26T11:18:40;4.30;;;1.58;;
11711;SDS011;5912;51.034;6.984;2023-06-26T11:23:32;3.58;;;1.40;;
11711;SDS011;5912;51.034;6.984;2023-06-26T11:31:47;7.35;;;1.63;;
11711;SDS011;5912;51.034;6.984;2023-06-26T11:34:10;4.25;;;1.48;;
11711;SDS011;5912;51.034;6.984;2023-06-26T11:36:37;2.55;;;1.40;;
11711;SDS011;5912;51.034;6.984;2023-06-26T11:39:06;2.47;;;1.38;;
11711;SDS011;5912;51.034;6.984;2023-06-26T11:41:32;3.15;;;1.52;;
11711;SDS011;5912;51.034;6.984;2023-06-26T11:44:03;2.58;;;1.30;;
11711;SDS011;5912;51.034;6.984;2023-06-26T11:46:30;2.53;;;1.10;;
11711;SDS011;5912;51.034;6.984;2023-06-26T11:48:55;1.77;;;1.10;;
11711;SDS011;5912;51.034;6.984;2023-06-26T11:51:21;3.70;;;1.48;;
11711;SDS011;5912;51.034;6.984;2023-06-26T11:53:46;2.15;;;1.40;;
11711;SDS011;5912;51.034;6.984;2023-06-26T11:56:13;2.42;;;1.25;;
11711;SDS011;5912;51.034;6.984;2023-06-26T12:01:26;2.85;;;1.40;;
11711;SDS011;5912;51.034;6.984;2023-06-26T12:03:58;4.70;;;1.23;;
11711;SDS011;5912;51.034;6.984;2023-06-26T12:06:25;4.32;;;1.40;;
11711;SDS011;5912;51.034;6.984;2023-06-26T12:08:51;2.72;;;1.30;;
11711;SDS011;5912;51.034;6.984;2023-06-26T12:11:16;4.38;;;1.30;;
11711;SDS011;5912;51.034;6.984;2023-06-26T12:13:42;1.60;;;1.13;;
11711;SDS011;5912;51.034;6.984;2023-06-26T12:16:08;2.22;;;1.10;;
11711;SDS011;5912;51.034;6.984;2023-06-26T12:18:36;3.22;;;1.13;;
11711;SDS011;5912;51.034;6.984;2023-06-26T12:21:02;3.40;;;1.35;;
11711;SDS011;5912;51.034;6.984;2023-06-26T12:23:34;4.57;;;1.20;;
11711;SDS011;5912;51.034;6.984;2023-06-26T12:26:17;3.58;;;1.40;;
11711;SDS011;5912;51.034;6.984;2023-06-26T12:28:44;2.70;;;1.42;;
11711;SDS011;5912;51.034;6.984;2023-06-26T12:31:17;1.95;;;1.20;;
11711;SDS011;5912;51.034;6.984;2023-06-26T12:33:45;1.95;;;1.20;;
11711;SDS011;5912;51.034;6.984;2023-06-26T12:36:11;2.05;;;1.15;;
11711;SDS011;5912;51.034;6.984;2023-06-26T12:38:37;3.28;;;1.25;;
11711;SDS011;5912;51.034;6.984;2023-06-26T12:41:02;5.63;;;1.40;;
11711;SDS011;5912;51.034;6.984;2023-06-26T12:43:28;3.65;;;1.05;;
11711;SDS011;5912;51.034;6.984;2023-06-26T12:45:56;2.92;;;1.48;;
11711;SDS011;5912;51.034;6.984;2023-06-26T12:48:22;4.50;;;1.42;;
11711;SDS011;5912;51.034;6.984;2023-06-26T12:51:11;2.15;;;1.10;;
11711;SDS011;5912;51.034;6.984;2023-06-26T12:53:38;2.28;;;1.13;;
11711;SDS011;5912;51.034;6.984;2023-06-26T12:56:05;1.08;;;0.93;;
11711;SDS011;5912;51.034;6.984;2023-06-26T12:58:32;5.57;;;1.20;;
11711;SDS011;5912;51.034;6.984;2023-06-26T13:00:57;3.60;;;1.00;;
11711;SDS011;5912;51.034;6.984;2023-06-26T13:03:22;2.75;;;1.00;;
11711;SDS011;5912;51.034;6.984;2023-06-26T13:05:48;2.72;;;1.45;;
11711;SDS011;5912;51.034;6.984;2023-06-26T13:08:13;1.70;;;1.00;;
11711;SDS011;5912;51.034;6.984;2023-06-26T13:10:42;2.38;;;0.98;;
11711;SDS011;5912;51.034;6.984;2023-06-26T13:13:07;6.07;;;1.40;;
11711;SDS011;5912;51.034;6.984;2023-06-26T13:15:33;2.83;;;1.20;;
11711;SDS011;5912;51.034;6.984;2023-06-26T13:17:58;5.43;;;1.00;;
11711;SDS011;5912;51.034;6.984;2023-06-26T13:20:24;1.48;;;0.88;;
11711;SDS011;5912;51.034;6.984;2023-06-26T13:22:49;2.13;;;0.90;;
11711;SDS011;5912;51.034;6.984;2023-06-26T13:25:14;3.75;;;1.15;;
11711;SDS011;5912;51.034;6.984;2023-06-26T13:27:40;2.70;;;0.88;;
11711;SDS011;5912;51.034;6.984;2023-06-26T13:30:05;1.90;;;0.93;;
11711;SDS011;5912;51.034;6.984;2023-06-26T13:32:31;5.07;;;1.88;;
11711;SDS011;5912;51.034;6.984;2023-06-26T13:34:57;3.10;;;1.02;;
11711;SDS011;5912;51.034;6.984;2023-06-26T13:37:22;1.88;;;1.05;;
11711;SDS011;5912;51.034;6.984;2023-06-26T13:39:48;2.42;;;0.93;;
11711;SDS011;5912;51.034;6.984;2023-06-26T13:42:15;1.92;;;0.80;;
11711;SDS011;5912;51.034;6.984;2023-06-26T13:44:41;1.83;;;0.80;;
11711;SDS011;5912;51.034;6.984;2023-06-26T13:47:07;4.82;;;1.52;;
11711;SDS011;5912;51.034;6.984;2023-06-26T13:49:32;2.17;;;0.82;;
11711;SDS011;5912;51.034;6.984;2023-06-26T13:51:58;2.45;;;0.98;;
11711;SDS011;5912;51.034;6.984;2023-06-26T13:54:23;1.52;;;0.80;;
11711;SDS011;5912;51.034;6.984;2023-06-26T13:56:48;2.25;;;1.00;;
11711;SDS011;5912;51.034;6.984;2023-06-26T13:59:13;0.93;;;0.70;;
11711;SDS011;5912;51.034;6.984;2023-06-26T14:01:39;1.73;;;0.90;;
11711;SDS011;5912;51.034;6.984;2023-06-26T14:04:10;3.00;;;0.90;;
11711;SDS011;5912;51.034;6.984;2023-06-26T14:06:35;2.05;;;0.98;;
11711;SDS011;5912;51.034;6.984;2023-06-26T14:09:01;3.08;;;0.70;;
11711;SDS011;5912;51.034;6.984;2023-06-26T14:11:26;1.33;;;0.93;;
11711;SDS011;5912;51.034;6.984;2023-06-26T14:13:52;4.15;;;0.80;;
11711;SDS011;5912;51.034;6.984;2023-06-26T14:16:17;3.38;;;0.93;;
11711;SDS011;5912;51.034;6.984;2023-06-26T14:18:43;3.67;;;1.00;;
11711;SDS011;5912;51.034;6.984;2023-06-26T14:21:09;1.05;;;0.85;;
11711;SDS011;5912;51.034;6.984;2023-06-26T14:23:34;1.00;;;0.80;;
11711;SDS011;5912;51.034;6.984;2023-06-26T14:26:00;1.80;;;1.00;;
11711;SDS011;5912;51.034;6.984;2023-06-26T14:28:25;0.90;;;0.65;;
11711;SDS011;5912;51.034;6.984;2023-06-26T14:30:51;0.98;;;0.77;;
11711;SDS011;5912;51.034;6.984;2023-06-26T14:33:16;1.42;;;0.77;;
11711;SDS011;5912;51.034;6.984;2023-06-26T14:35:41;1.75;;;0.70;;
11711;SDS011;5912;51.034;6.984;2023-06-26T14:38:06;2.50;;;1.17;;
11711;SDS011;5912;51.034;6.984;2023-06-26T14:40:32;0.90;;;0.80;;
11711;SDS011;5912;51.034;6.984;2023-06-26T14:42:57;1.90;;;1.00;;
11711;SDS011;5912;51.034;6.984;2023-06-26T14:45:22;2.35;;;0.75;;
11711;SDS011;5912;51.034;6.984;2023-06-26T14:47:48;1.23;;;0.73;;
11711;SDS011;5912;51.034;6.984;2023-06-26T14:50:13;1.77;;;0.88;;
11711;SDS011;5912;51.034;6.984;2023-06-26T14:52:38;2.22;;;0.90;;
11711;SDS011;5912;51.034;6.984;2023-06-26T14:55:04;4.38;;;1.20;;
11711;SDS011;5912;51.034;6.984;2023-06-26T14:57:29;3.55;;;0.90;;
11711;SDS011;5912;51.034;6.984;2023-06-26T14:59:55;2.58;;;0.98;;
11711;SDS011;5912;51.034;6.984;2023-06-26T15:02:20;2.70;;;0.95;;
11711;SDS011;5912;51.034;6.984;2023-06-26T15:04:46;1.30;;;1.02;;
11711;SDS011;5912;51.034;6.984;2023-06-26T15:07:11;3.15;;;1.27;;
11711;SDS011;5912;51.034;6.984;2023-06-26T15:09:36;1.23;;;0.90;;
11711;SDS011;5912;51.034;6.984;2023-06-26T15:12:02;1.08;;;0.98;;
11711;SDS011;5912;51.034;6.984;2023-06-26T15:14:28;1.77;;;1.00;;
11711;SDS011;5912;51.034;6.984;2023-06-26T15:16:53;1.88;;;1.08;;
11711;SDS011;5912;51.034;6.984;2023-06-26T15:19:19;1.85;;;1.02;;
11711;SDS011;5912;51.034;6.984;2023-06-26T15:21:44;3.30;;;0.93;;
11711;SDS011;5912;51.034;6.984;2023-06-26T15:24:10;2.20;;;1.00;;
11711;SDS011;5912;51.034;6.984;2023-06-26T15:26:35;2.75;;;0.98;;